createdAt,value
2022-07-25T00:01:57.075Z,4.18
2022-07-25T00:04:25.845Z,4.05
2022-07-25T00:06:53.420Z,4.00
2022-07-25T00:09:20.900Z,4.68
2022-07-25T00:11:48.737Z,3.92
2022-07-25T00:14:16.266Z,4.35
2022-07-25T00:16:43.723Z,4.32
2022-07-25T00:19:11.883Z,4.28
2022-07-25T00:21:39.312Z,3.65
2022-07-25T00:24:07.556Z,4.20
2022-07-25T00:26:39.974Z,4.43
2022-07-25T00:29:08.201Z,4.22
2022-07-25T00:31:36.216Z,3.90
2022-07-25T00:34:04.369Z,3.33
2022-07-25T00:36:32.102Z,4.05
2022-07-25T00:38:59.857Z,4.07
2022-07-25T00:41:27.463Z,4.18
2022-07-25T00:43:54.923Z,3.95
2022-07-25T00:46:22.687Z,3.53
2022-07-25T00:48:51.631Z,3.90
2022-07-25T00:51:19.433Z,4.00
2022-07-25T00:53:47.244Z,3.40
2022-07-25T00:56:15.662Z,3.92
2022-07-25T00:58:45.409Z,4.07
2022-07-25T01:01:13.303Z,3.80
2022-07-25T01:03:40.947Z,4.00
2022-07-25T01:06:08.970Z,3.72
2022-07-25T01:08:36.778Z,3.95
2022-07-25T01:11:04.461Z,3.67
2022-07-25T01:13:34.187Z,3.70
2022-07-25T01:16:02.078Z,3.87
2022-07-25T01:18:29.671Z,3.85
2022-07-25T01:20:57.345Z,3.70
2022-07-25T01:23:25.061Z,3.90
2022-07-25T01:25:52.635Z,4.03
2022-07-25T01:28:20.136Z,4.05
2022-07-25T01:30:47.934Z,3.65
2022-07-25T01:33:17.027Z,3.28
2022-07-25T01:35:45.166Z,3.75
2022-07-25T01:38:13.143Z,3.70
2022-07-25T01:40:41.128Z,4.07
2022-07-25T01:43:09.269Z,3.62
2022-07-25T01:45:37.468Z,3.42
2022-07-25T01:48:05.154Z,3.67
2022-07-25T01:50:32.645Z,3.55
2022-07-25T01:53:00.395Z,4.12
2022-07-25T01:55:27.981Z,3.70
2022-07-25T01:57:57.390Z,3.95
2022-07-25T02:00:25.592Z,3.90
2022-07-25T02:03:12.114Z,3.90
2022-07-25T02:05:39.714Z,4.00
2022-07-25T02:08:07.418Z,3.60
2022-07-25T02:10:37.457Z,4.37
2022-07-25T02:13:05.005Z,3.80
2022-07-25T02:15:32.829Z,4.50
2022-07-25T02:18:00.281Z,4.00
2022-07-25T02:20:27.776Z,4.03
2022-07-25T02:22:55.553Z,4.00
2022-07-25T02:25:23.036Z,3.78
2022-07-25T02:27:50.609Z,3.60
2022-07-25T02:30:18.375Z,3.70
2022-07-25T02:32:45.869Z,3.90
2022-07-25T02:35:13.567Z,4.18
2022-07-25T02:37:42.150Z,4.45
2022-07-25T02:40:10.082Z,3.87
2022-07-25T02:42:37.754Z,4.00
2022-07-25T02:45:06.154Z,4.15
2022-07-25T02:47:33.751Z,3.85
2022-07-25T02:50:02.088Z,4.35
2022-07-25T02:52:29.873Z,3.92
2022-07-25T02:54:57.339Z,3.45
2022-07-25T02:57:24.826Z,4.43
2022-07-25T02:59:52.613Z,4.37
2022-07-25T03:02:20.086Z,4.37
2022-07-25T03:04:47.675Z,4.12
2022-07-25T03:07:15.592Z,4.28
2022-07-25T03:09:43.044Z,4.05
2022-07-25T03:12:10.663Z,4.75
2022-07-25T03:14:38.413Z,3.75
2022-07-25T03:17:05.932Z,4.03
2022-07-25T03:19:33.491Z,4.12
2022-07-25T03:22:01.226Z,4.28
2022-07-25T03:24:28.719Z,3.72
2022-07-25T03:26:56.232Z,3.95
2022-07-25T03:29:24.015Z,4.07
2022-07-25T03:31:51.548Z,4.53
2022-07-25T03:34:19.249Z,3.70
2022-07-25T03:36:47.102Z,3.42
2022-07-25T03:39:14.654Z,3.65
2022-07-25T03:41:42.159Z,4.62
2022-07-25T03:44:10.343Z,4.20
2022-07-25T03:46:38.080Z,4.22
2022-07-25T03:49:05.983Z,3.83
2022-07-25T03:51:33.825Z,3.92
2022-07-25T03:54:04.522Z,4.22
2022-07-25T03:56:36.690Z,3.95
2022-07-25T03:59:13.547Z,3.67
2022-07-25T04:01:42.383Z,3.72
2022-07-25T04:04:10.608Z,3.58
2022-07-25T04:06:39.385Z,3.65
2022-07-25T04:09:08.334Z,3.78
2022-07-25T04:11:38.285Z,4.00
2022-07-25T04:14:07.135Z,3.78
2022-07-25T04:16:35.072Z,3.90
2022-07-25T04:19:05.340Z,3.72
2022-07-25T04:21:34.288Z,3.60
2022-07-25T04:24:02.078Z,4.03
2022-07-25T04:26:29.873Z,4.00
2022-07-25T04:28:58.782Z,4.43
2022-07-25T04:31:26.346Z,4.47
2022-07-25T04:33:54.193Z,4.37
2022-07-25T04:36:21.801Z,3.72
2022-07-25T04:38:49.285Z,4.00
2022-07-25T04:41:17.095Z,4.60
2022-07-25T04:43:48.582Z,4.00
2022-07-25T04:46:23.175Z,3.90
2022-07-25T04:48:51.490Z,4.00
2022-07-25T04:51:19.059Z,4.45
2022-07-25T04:53:46.755Z,3.95
2022-07-25T04:56:14.558Z,4.07
2022-07-25T04:58:42.256Z,4.05
2022-07-25T05:01:09.883Z,3.85
2022-07-25T05:03:37.810Z,4.70
2022-07-25T05:06:05.518Z,4.12
2022-07-25T05:08:32.988Z,3.90
2022-07-25T05:11:00.718Z,3.97
2022-07-25T05:13:28.199Z,5.05
2022-07-25T05:15:55.688Z,4.53
2022-07-25T05:18:23.430Z,4.07
2022-07-25T05:20:50.910Z,4.12
2022-07-25T05:23:18.406Z,3.90
2022-07-25T05:25:46.355Z,3.65
2022-07-25T05:28:14.997Z,3.90
2022-07-25T05:30:42.529Z,4.07
2022-07-25T05:33:10.278Z,3.80
2022-07-25T05:35:37.805Z,4.12
2022-07-25T05:38:05.498Z,3.62
2022-07-25T05:40:33.330Z,4.03
2022-07-25T05:43:03.192Z,3.72
2022-07-25T05:45:31.888Z,3.53
2022-07-25T05:47:59.652Z,3.53
2022-07-25T05:50:27.198Z,3.72
2022-07-25T05:52:54.665Z,3.87
2022-07-25T05:55:22.620Z,3.60
2022-07-25T05:57:50.130Z,3.85
2022-07-25T06:00:17.805Z,3.30
2022-07-25T06:02:45.702Z,3.30
2022-07-25T06:05:13.306Z,3.75
2022-07-25T06:07:41.382Z,3.72
2022-07-25T06:10:09.708Z,3.55
2022-07-25T06:12:37.350Z,3.42
2022-07-25T06:15:05.987Z,3.42
2022-07-25T06:17:34.070Z,3.50
2022-07-25T06:20:01.673Z,3.45
2022-07-25T06:22:30.668Z,3.60
2022-07-25T06:24:58.435Z,3.95
2022-07-25T06:27:29.205Z,3.33
2022-07-25T06:29:57.049Z,3.60
2022-07-25T06:32:24.786Z,3.00
2022-07-25T06:34:52.286Z,3.45
2022-07-25T06:37:19.878Z,2.87
2022-07-25T06:39:47.653Z,3.12
2022-07-25T06:42:15.120Z,3.78
2022-07-25T06:44:44.145Z,3.55
2022-07-25T06:47:15.113Z,3.40
2022-07-25T06:49:42.818Z,3.00
2022-07-25T06:52:10.715Z,3.15
2022-07-25T06:54:38.699Z,3.37
2022-07-25T06:57:06.208Z,3.40
2022-07-25T06:59:33.945Z,3.10
2022-07-25T07:02:02.249Z,3.20
2022-07-25T07:04:29.999Z,3.40
2022-07-25T07:06:57.496Z,3.20
2022-07-25T07:09:25.380Z,3.15
2022-07-25T07:11:52.860Z,3.17
2022-07-25T07:14:20.305Z,3.25
2022-07-25T07:16:48.154Z,3.20
2022-07-25T07:19:17.713Z,2.83
2022-07-25T07:21:45.775Z,3.25
2022-07-25T07:24:24.194Z,3.30
2022-07-25T07:26:53.969Z,3.20
2022-07-25T07:29:21.822Z,3.08
2022-07-25T07:31:49.956Z,3.92
2022-07-25T07:34:17.577Z,3.58
2022-07-25T07:36:45.485Z,3.28
2022-07-25T07:39:12.996Z,3.70
2022-07-25T07:41:40.488Z,3.30
2022-07-25T07:44:08.425Z,3.87
2022-07-25T07:46:36.044Z,3.25
2022-07-25T07:49:04.174Z,3.10
2022-07-25T07:51:32.265Z,3.45
2022-07-25T07:54:18.421Z,2.90
2022-07-25T07:56:46.297Z,3.55
2022-07-25T07:59:13.871Z,3.17
2022-07-25T08:01:41.401Z,3.12
2022-07-25T08:04:09.238Z,3.40
2022-07-25T08:06:36.788Z,3.58
2022-07-25T08:09:04.562Z,3.65
2022-07-25T08:11:32.654Z,3.45
2022-07-25T08:14:00.205Z,3.60
2022-07-25T08:16:27.789Z,3.42
2022-07-25T08:18:55.767Z,3.70
2022-07-25T08:21:23.222Z,3.62
2022-07-25T08:23:50.763Z,2.97
2022-07-25T08:26:18.557Z,3.30
2022-07-25T08:28:46.561Z,3.58
2022-07-25T08:31:14.780Z,3.60
2022-07-25T08:33:42.645Z,3.58
2022-07-25T08:36:11.556Z,3.33
2022-07-25T08:38:39.349Z,3.10
2022-07-25T08:41:07.552Z,3.15
2022-07-25T08:43:35.984Z,4.25
2022-07-25T08:46:05.924Z,3.90
2022-07-25T08:48:33.770Z,3.75
2022-07-25T08:51:01.864Z,3.65
2022-07-25T08:53:33.107Z,4.05
2022-07-25T08:56:08.140Z,3.50
2022-07-25T08:58:39.909Z,3.62
2022-07-25T09:01:08.237Z,3.87
2022-07-25T09:03:36.502Z,3.50
2022-07-25T09:06:18.815Z,4.10
2022-07-25T09:08:57.941Z,4.05
2022-07-25T09:11:36.960Z,3.70
2022-07-25T09:14:15.250Z,4.03
2022-07-25T09:16:45.171Z,3.60
2022-07-25T09:19:15.646Z,4.75
2022-07-25T09:21:45.635Z,3.47
2022-07-25T09:24:16.476Z,3.50
2022-07-25T09:26:52.386Z,3.58
2022-07-25T09:29:27.217Z,3.40
2022-07-25T09:31:55.987Z,3.62
2022-07-25T09:34:36.993Z,3.97
2022-07-25T09:37:06.657Z,3.53
2022-07-25T09:39:45.889Z,3.42
2022-07-25T09:42:34.531Z,3.70
2022-07-25T09:45:12.934Z,3.60
2022-07-25T09:47:55.319Z,3.92
2022-07-25T09:50:24.960Z,3.75
2022-07-25T09:52:53.550Z,3.58
2022-07-25T09:55:22.158Z,3.50
2022-07-25T09:57:50.173Z,3.10
2022-07-25T10:00:24.582Z,3.70
2022-07-25T10:02:55.369Z,3.90
2022-07-25T10:05:45.514Z,3.62
2022-07-25T10:08:13.505Z,3.90
2022-07-25T10:10:42.073Z,3.30
2022-07-25T10:13:18.214Z,3.53
2022-07-25T10:15:51.212Z,3.15
2022-07-25T10:18:20.848Z,3.17
2022-07-25T10:20:50.774Z,2.97
2022-07-25T10:23:19.098Z,3.50
2022-07-25T10:25:49.171Z,3.72
2022-07-25T10:28:19.344Z,3.72
2022-07-25T10:30:47.117Z,3.58
2022-07-25T10:33:18.042Z,3.30
2022-07-25T10:35:46.142Z,2.80
2022-07-25T10:38:13.682Z,3.47
2022-07-25T10:40:46.513Z,3.35
2022-07-25T10:43:22.141Z,3.30
2022-07-25T10:45:53.393Z,3.40
2022-07-25T10:48:23.674Z,3.17
2022-07-25T10:51:10.110Z,3.78
2022-07-25T10:53:47.161Z,3.12
2022-07-25T10:56:22.413Z,3.22
2022-07-25T10:58:51.121Z,3.45
2022-07-25T11:01:41.369Z,3.33
2022-07-25T11:04:15.704Z,3.45
2022-07-25T11:06:43.581Z,3.25
2022-07-25T11:09:19.125Z,3.00
2022-07-25T11:11:50.109Z,3.40
2022-07-25T11:14:34.626Z,3.35
2022-07-25T11:17:20.173Z,2.90
2022-07-25T11:20:05.042Z,3.10
2022-07-25T11:22:33.019Z,2.87
2022-07-25T11:25:01.745Z,2.97
2022-07-25T11:27:31.661Z,3.05
2022-07-25T11:30:12.342Z,2.83
2022-07-25T11:32:49.697Z,2.97
2022-07-25T11:35:21.955Z,2.70
2022-07-25T11:37:50.917Z,3.12
2022-07-25T11:40:19.610Z,3.05
2022-07-25T11:42:48.985Z,2.83
2022-07-25T11:45:16.852Z,2.67
2022-07-25T11:47:44.671Z,2.80
2022-07-25T11:50:14.984Z,3.28
2022-07-25T11:52:43.604Z,3.40
2022-07-25T11:55:13.746Z,3.42
2022-07-25T11:57:46.657Z,3.67
2022-07-25T12:00:20.307Z,3.53
2022-07-25T12:02:49.992Z,3.75
2022-07-25T12:05:20.344Z,3.37
2022-07-25T12:07:55.889Z,2.90
2022-07-25T12:10:31.526Z,3.33
2022-07-25T12:13:02.508Z,2.83
2022-07-25T12:15:33.243Z,2.92
2022-07-25T12:18:02.458Z,3.28
2022-07-25T12:20:32.419Z,2.60
2022-07-25T12:23:04.787Z,2.80
2022-07-25T12:25:33.798Z,2.85
2022-07-25T12:28:01.368Z,2.83
2022-07-25T12:30:30.231Z,3.00
2022-07-25T12:32:59.396Z,3.15
2022-07-25T12:35:27.508Z,3.03
2022-07-25T12:37:55.154Z,2.87
2022-07-25T12:40:23.583Z,3.22
2022-07-25T12:42:51.193Z,2.87
2022-07-25T12:45:18.729Z,2.90
2022-07-25T12:47:48.063Z,3.12
2022-07-25T12:50:16.472Z,2.60
2022-07-25T12:52:45.227Z,3.22
2022-07-25T12:55:16.004Z,3.78
2022-07-25T12:57:43.946Z,3.05
2022-07-25T13:00:17.025Z,2.85
2022-07-25T13:02:44.583Z,3.28
2022-07-25T13:05:12.279Z,2.65
2022-07-25T13:07:40.289Z,3.03
2022-07-25T13:10:08.291Z,2.83
2022-07-25T13:12:38.655Z,2.30
2022-07-25T13:15:07.283Z,3.10
2022-07-25T13:17:34.923Z,2.60
2022-07-25T13:20:03.117Z,2.50
2022-07-25T13:22:30.918Z,2.87
2022-07-25T13:24:58.483Z,2.80
2022-07-25T13:27:26.065Z,2.75
2022-07-25T13:29:54.784Z,3.00
2022-07-25T13:32:22.755Z,2.62
2022-07-25T13:34:50.468Z,2.45
2022-07-25T13:37:18.300Z,2.53
2022-07-25T13:39:45.858Z,2.53
2022-07-25T13:42:13.466Z,2.67
2022-07-25T13:44:41.293Z,2.87
2022-07-25T13:47:08.825Z,3.08
2022-07-25T13:49:37.053Z,3.42
2022-07-25T13:52:05.123Z,2.83
2022-07-25T13:54:33.038Z,2.55
2022-07-25T13:57:02.444Z,2.83
2022-07-25T13:59:30.323Z,2.37
2022-07-25T14:01:58.252Z,2.72
2022-07-25T14:04:26.190Z,2.35
2022-07-25T14:06:54.111Z,2.95
2022-07-25T14:09:22.206Z,3.45
2022-07-25T14:11:50.108Z,2.90
2022-07-25T14:14:17.673Z,3.15
2022-07-25T14:16:45.293Z,2.85
2022-07-25T14:19:13.150Z,3.65
2022-07-25T14:21:40.693Z,2.67
2022-07-25T14:24:08.495Z,2.95
2022-07-25T14:26:36.455Z,2.37
2022-07-25T14:29:04.597Z,2.75
2022-07-25T14:31:33.026Z,2.75
2022-07-25T14:34:00.958Z,3.05
2022-07-25T14:36:28.503Z,3.00
2022-07-25T14:38:56.052Z,2.62
2022-07-25T14:41:23.914Z,2.45
2022-07-25T14:43:51.464Z,2.90
2022-07-25T14:46:19.036Z,3.30
2022-07-25T14:48:47.618Z,2.90
2022-07-25T14:51:15.160Z,2.50
2022-07-25T14:53:42.671Z,2.60
2022-07-25T14:56:10.442Z,2.85
2022-07-25T14:58:39.085Z,2.42
2022-07-25T15:01:06.738Z,2.90
2022-07-25T15:03:35.778Z,2.90
2022-07-25T15:06:07.598Z,2.80
2022-07-25T15:08:37.440Z,2.92
2022-07-25T15:11:05.152Z,2.97
2022-07-25T15:13:32.974Z,3.10
2022-07-25T15:16:01.205Z,2.97
2022-07-25T15:18:29.756Z,3.00
2022-07-25T15:20:57.587Z,2.42
2022-07-25T15:23:27.716Z,3.25
2022-07-25T15:26:01.882Z,3.15
2022-07-25T15:28:32.663Z,3.10
2022-07-25T15:31:00.401Z,2.78
2022-07-25T15:33:28.432Z,3.20
2022-07-25T15:35:56.262Z,2.85
2022-07-25T15:38:23.998Z,2.70
2022-07-25T15:40:51.579Z,2.78
2022-07-25T15:43:19.390Z,2.90
2022-07-25T15:45:47.266Z,3.42
2022-07-25T15:48:16.372Z,3.22
2022-07-25T15:50:46.635Z,3.30
2022-07-25T15:53:14.575Z,2.90
2022-07-25T15:55:42.919Z,2.70
2022-07-25T15:58:11.384Z,2.80
2022-07-25T16:00:39.939Z,2.53
2022-07-25T16:03:08.423Z,2.85
2022-07-25T16:05:37.933Z,2.87
2022-07-25T16:08:08.216Z,2.90
2022-07-25T16:10:36.273Z,3.00
2022-07-25T16:13:03.944Z,2.70
2022-07-25T16:15:31.589Z,2.60
2022-07-25T16:18:02.535Z,2.90
2022-07-25T16:20:32.055Z,2.78
2022-07-25T16:23:00.814Z,3.40
2022-07-25T16:25:29.322Z,3.20
2022-07-25T16:27:57.599Z,2.55
2022-07-25T16:30:25.905Z,3.03
2022-07-25T16:32:53.650Z,2.45
2022-07-25T16:35:21.392Z,2.62
2022-07-25T16:37:49.586Z,2.87
2022-07-25T16:40:17.210Z,2.70
2022-07-25T16:42:44.833Z,2.70
2022-07-25T16:45:12.871Z,2.80
2022-07-25T16:47:41.828Z,3.33
2022-07-25T16:50:09.559Z,2.60
2022-07-25T16:52:37.420Z,2.90
2022-07-25T16:55:05.632Z,2.60
2022-07-25T16:57:33.270Z,2.85
2022-07-25T17:00:01.122Z,3.22
2022-07-25T17:02:29.873Z,2.80
2022-07-25T17:04:58.159Z,3.20
2022-07-25T17:07:26.965Z,2.70
2022-07-25T17:09:54.565Z,3.42
2022-07-25T17:12:22.193Z,2.80
2022-07-25T17:14:50.012Z,3.60
2022-07-25T17:17:17.687Z,3.12
2022-07-25T17:19:45.178Z,3.05
2022-07-25T17:22:13.063Z,3.50
2022-07-25T17:24:40.741Z,2.40
2022-07-25T17:27:09.068Z,3.12
2022-07-25T17:29:36.926Z,2.58
2022-07-25T17:32:06.950Z,3.12
2022-07-25T17:34:34.610Z,2.87
2022-07-25T17:37:03.098Z,3.20
2022-07-25T17:39:30.982Z,3.05
2022-07-25T17:41:58.797Z,3.22
2022-07-25T17:44:26.658Z,3.12
2022-07-25T17:46:54.460Z,2.78
2022-07-25T17:49:22.471Z,2.90
2022-07-25T17:51:50.477Z,2.70
2022-07-25T17:54:18.050Z,3.78
2022-07-25T17:56:45.785Z,2.85
2022-07-25T17:59:13.811Z,3.92
2022-07-25T18:01:41.511Z,3.28
2022-07-25T18:04:09.854Z,3.33
2022-07-25T18:06:37.635Z,3.00
2022-07-25T18:09:05.253Z,3.28
2022-07-25T18:11:33.026Z,4.18
2022-07-25T18:14:00.697Z,3.17
2022-07-25T18:16:28.431Z,3.42
2022-07-25T18:18:56.314Z,3.50
2022-07-25T18:21:24.544Z,3.70
2022-07-25T18:23:52.249Z,3.53
2022-07-25T18:26:21.881Z,3.72
2022-07-25T18:28:49.651Z,3.85
2022-07-25T18:31:17.253Z,3.75
2022-07-25T18:33:45.199Z,3.78
2022-07-25T18:36:12.717Z,3.80
2022-07-25T18:38:40.700Z,3.60
2022-07-25T18:41:28.619Z,3.60
2022-07-25T18:43:56.977Z,3.87
2022-07-25T18:46:25.068Z,2.80
2022-07-25T18:48:53.777Z,4.15
2022-07-25T18:51:21.687Z,3.90
2022-07-25T18:53:49.798Z,3.80
2022-07-25T18:56:17.520Z,2.90
2022-07-25T18:58:45.236Z,3.42
2022-07-25T19:01:13.217Z,3.75
2022-07-25T19:03:40.985Z,3.75
2022-07-25T19:06:09.567Z,3.65
2022-07-25T19:08:37.421Z,3.53
2022-07-25T19:11:05.335Z,4.65
2022-07-25T19:13:51.181Z,3.47
2022-07-25T19:16:19.555Z,3.67
2022-07-25T19:18:47.521Z,2.95
2022-07-25T19:21:15.565Z,2.83
2022-07-25T19:23:49.812Z,3.37
2022-07-25T19:26:19.504Z,3.40
2022-07-25T19:28:48.517Z,2.92
2022-07-25T19:31:16.317Z,3.30
2022-07-25T19:33:45.930Z,2.80
2022-07-25T19:36:14.143Z,3.40
2022-07-25T19:38:41.799Z,3.35
2022-07-25T19:41:09.598Z,3.30
2022-07-25T19:43:37.367Z,3.55
2022-07-25T19:46:05.380Z,3.42
2022-07-25T19:48:33.101Z,3.80
2022-07-25T19:51:01.080Z,4.12
2022-07-25T19:53:28.946Z,3.65
2022-07-25T19:55:56.723Z,3.28
2022-07-25T19:58:24.578Z,3.85
2022-07-25T20:00:52.102Z,4.00
2022-07-25T20:03:23.589Z,3.20
2022-07-25T20:05:51.460Z,3.10
2022-07-25T20:08:19.113Z,3.97
2022-07-25T20:10:48.332Z,3.75
2022-07-25T20:13:16.206Z,3.85
2022-07-25T20:15:43.826Z,4.03
2022-07-25T20:18:16.035Z,3.67
2022-07-25T20:20:46.999Z,4.05
2022-07-25T20:23:14.846Z,3.28
2022-07-25T20:25:42.452Z,3.53
2022-07-25T20:28:10.085Z,3.60
2022-07-25T20:30:38.015Z,4.20
2022-07-25T20:33:09.283Z,3.78
2022-07-25T20:35:37.806Z,3.92
2022-07-25T20:38:09.255Z,3.90
2022-07-25T20:40:48.170Z,3.47
2022-07-25T20:43:18.002Z,3.67
2022-07-25T20:45:47.518Z,3.35
2022-07-25T20:48:15.795Z,3.40
2022-07-25T20:50:44.308Z,4.00
2022-07-25T20:53:12.305Z,5.90
2022-07-25T20:55:39.909Z,3.33
2022-07-25T20:58:07.771Z,3.25
2022-07-25T21:00:35.266Z,3.33
2022-07-25T21:03:02.961Z,3.90
2022-07-25T21:05:30.993Z,4.03
2022-07-25T21:07:58.525Z,3.70
2022-07-25T21:10:26.589Z,3.30
2022-07-25T21:12:56.703Z,3.95
2022-07-25T21:15:24.619Z,3.33
2022-07-25T21:17:52.183Z,3.78
2022-07-25T21:20:20.023Z,2.97
2022-07-25T21:22:47.767Z,3.80
2022-07-25T21:25:15.296Z,3.60
2022-07-25T21:27:43.079Z,4.07
2022-07-25T21:30:11.411Z,3.60
2022-07-25T21:32:40.710Z,3.42
2022-07-25T21:35:08.988Z,3.20
2022-07-25T21:37:36.603Z,4.20
2022-07-25T21:40:04.765Z,3.35
2022-07-25T21:42:32.558Z,3.45
2022-07-25T21:45:00.222Z,3.47
2022-07-25T21:47:27.840Z,3.42
2022-07-25T21:50:14.410Z,3.60
2022-07-25T21:52:48.891Z,4.15
2022-07-25T21:55:16.757Z,3.55
2022-07-25T21:57:44.228Z,4.25
2022-07-25T22:00:13.002Z,5.32
2022-07-25T22:02:45.290Z,5.78
2022-07-25T22:05:14.060Z,5.95
2022-07-25T22:07:42.142Z,6.07
2022-07-25T22:10:11.626Z,6.93
2022-07-25T22:12:40.058Z,7.57
2022-07-25T22:15:08.413Z,9.55
2022-07-25T22:17:46.182Z,8.88
2022-07-25T22:20:18.586Z,6.72
2022-07-25T22:22:49.364Z,6.55
2022-07-25T22:25:17.295Z,6.80
2022-07-25T22:27:44.863Z,6.00
2022-07-25T22:30:18.505Z,5.93
2022-07-25T22:32:47.948Z,4.97
2022-07-25T22:35:15.941Z,4.50
2022-07-25T22:37:44.584Z,4.75
2022-07-25T22:40:12.969Z,4.37
2022-07-25T22:42:41.099Z,3.42
2022-07-25T22:45:09.135Z,4.05
2022-07-25T22:47:36.748Z,3.42
2022-07-25T22:50:05.371Z,4.45
2022-07-25T22:52:35.003Z,4.22
2022-07-25T22:55:02.659Z,4.07
2022-07-25T22:57:30.460Z,3.47
2022-07-25T23:00:09.922Z,3.90
2022-07-25T23:02:38.930Z,3.35
2022-07-25T23:05:07.370Z,3.40
2022-07-25T23:07:35.464Z,5.25
2022-07-25T23:10:04.667Z,3.00
2022-07-25T23:12:32.271Z,3.50
2022-07-25T23:14:59.786Z,3.17
2022-07-25T23:17:27.569Z,3.87
2022-07-25T23:19:55.968Z,3.70
2022-07-25T23:22:24.622Z,3.92
2022-07-25T23:24:52.382Z,4.00
2022-07-25T23:27:20.054Z,3.58
2022-07-25T23:29:47.537Z,3.72
2022-07-25T23:32:15.302Z,3.47
2022-07-25T23:34:42.883Z,3.50
2022-07-25T23:37:10.545Z,3.50
2022-07-25T23:39:38.334Z,3.65
2022-07-25T23:42:05.862Z,3.55
2022-07-25T23:44:33.383Z,3.87
2022-07-25T23:47:04.542Z,3.50
2022-07-25T23:49:36.071Z,2.97
2022-07-25T23:52:04.083Z,3.12
2022-07-25T23:54:34.897Z,3.10
2022-07-25T23:57:02.981Z,3.40
2022-07-25T23:59:30.820Z,3.37
